2026/08/12

Sensor Date Temp./Hum.
h4-hermonville 12-08-2026 - 23:58 26.4°C / 35%
h1-hermonville 12-08-2026 - 23:53 25.3°C / 37.5%
h3-hermonville 12-08-2026 - 23:50 25.6°C / 37%
h4-hermonville 12-08-2026 - 23:48 26.6°C / 35%
h2-hermonville 12-08-2026 - 23:44 25°C / 38%
h1-hermonville 12-08-2026 - 23:43 25.4°C / 37.5%
h3-hermonville 12-08-2026 - 23:40 25.6°C / 35.5%
h4-hermonville 12-08-2026 - 23:38 26.7°C / 35%
h2-hermonville 12-08-2026 - 23:34 25.3°C / 38%
h1-hermonville 12-08-2026 - 23:33 25.6°C / 37%
h3-hermonville 12-08-2026 - 23:30 25.9°C / 35.5%
h4-hermonville 12-08-2026 - 23:28 26.8°C / 34.5%
h1-hermonville 12-08-2026 - 23:23 25.7°C / 37.5%
h3-hermonville 12-08-2026 - 23:20 26.1°C / 35.5%
h4-hermonville 12-08-2026 - 23:18 26.9°C / 35%
h2-hermonville 12-08-2026 - 23:14 25.8°C / 37.5%
h1-hermonville 12-08-2026 - 23:13 25.9°C / 36%
h3-hermonville 12-08-2026 - 23:10 26.1°C / 36.5%
h4-hermonville 12-08-2026 - 23:08 27.1°C / 35%
h2-hermonville 12-08-2026 - 23:04 26.2°C / 36.5%
h1-hermonville 12-08-2026 - 23:03 26°C / 37%
h3-hermonville 12-08-2026 - 23:00 26.2°C / 35.5%
h4-hermonville 12-08-2026 - 22:58 27.2°C / 35%
h1-hermonville 12-08-2026 - 22:53 26.1°C / 37%
h3-hermonville 12-08-2026 - 22:50 26.3°C / 36.5%
h4-hermonville 12-08-2026 - 22:48 27.3°C / 35%
h2-hermonville 12-08-2026 - 22:44 26.5°C / 36%
h1-hermonville 12-08-2026 - 22:43 26.3°C / 37%
h3-hermonville 12-08-2026 - 22:40 26.7°C / 36%
h4-hermonville 12-08-2026 - 22:38 27.5°C / 35%
h2-hermonville 12-08-2026 - 22:34 26.6°C / 36.5%
h1-hermonville 12-08-2026 - 22:33 26.4°C / 36.5%
h3-hermonville 12-08-2026 - 22:30 26.9°C / 35%
h4-hermonville 12-08-2026 - 22:28 27.7°C / 34.5%
h2-hermonville 12-08-2026 - 22:24 26.8°C / 36.5%
h1-hermonville 12-08-2026 - 22:23 26.6°C / 37%
h3-hermonville 12-08-2026 - 22:20 27°C / 35.5%
h4-hermonville 12-08-2026 - 22:18 28.1°C / 34.5%
h2-hermonville 12-08-2026 - 22:14 27°C / 36.5%
h1-hermonville 12-08-2026 - 22:13 26.7°C / 37%
h3-hermonville 12-08-2026 - 22:10 27.1°C / 35.5%
h4-hermonville 12-08-2026 - 22:08 28.2°C / 34.5%
h1-hermonville 12-08-2026 - 22:03 26.9°C / 36.5%
h3-hermonville 12-08-2026 - 22:00 27.5°C / 36%
h4-hermonville 12-08-2026 - 21:58 28.2°C / 34.5%
h2-hermonville 12-08-2026 - 21:54 27.7°C / 35.5%
h1-hermonville 12-08-2026 - 21:53 27.1°C / 36%
h3-hermonville 12-08-2026 - 21:50 27.7°C / 35.5%
h4-hermonville 12-08-2026 - 21:48 28.4°C / 34%
h2-hermonville 12-08-2026 - 21:44 28°C / 36%
h1-hermonville 12-08-2026 - 21:43 27.4°C / 37%
h3-hermonville 12-08-2026 - 21:40 27.7°C / 36%
h4-hermonville 12-08-2026 - 21:38 28.6°C / 34.5%
h2-hermonville 12-08-2026 - 21:34 28.3°C / 35%
h1-hermonville 12-08-2026 - 21:33 27.7°C / 36.5%
h4-hermonville 12-08-2026 - 21:28 28.6°C / 34.5%
h2-hermonville 12-08-2026 - 21:24 28.8°C / 35%
h1-hermonville 12-08-2026 - 21:23 27.9°C / 36%
h4-hermonville 12-08-2026 - 21:18 29.1°C / 34%
h1-hermonville 12-08-2026 - 21:13 28.3°C / 35%
h3-hermonville 12-08-2026 - 21:10 29.3°C / 34%
h4-hermonville 12-08-2026 - 21:08 29.4°C / 34%
h2-hermonville 12-08-2026 - 21:04 29.4°C / 35.5%
h1-hermonville 12-08-2026 - 21:03 28.8°C / 35.5%
h3-hermonville 12-08-2026 - 21:00 29.7°C / 33%
h4-hermonville 12-08-2026 - 20:58 29.8°C / 33.5%
h2-hermonville 12-08-2026 - 20:54 30.1°C / 35.5%
h1-hermonville 12-08-2026 - 20:53 29.4°C / 33.5%
h3-hermonville 12-08-2026 - 20:50 30.1°C / 35%
h4-hermonville 12-08-2026 - 20:48 30.1°C / 33%
h3-hermonville 12-08-2026 - 20:40 30.4°C / 32.5%
h4-hermonville 12-08-2026 - 20:38 30.7°C / 30%
h2-hermonville 12-08-2026 - 20:34 29.8°C / 33%
h1-hermonville 12-08-2026 - 20:33 30.7°C / 30.5%
h3-hermonville 12-08-2026 - 20:30 30.8°C / 29%
h4-hermonville 12-08-2026 - 20:28 31°C / 28%
h2-hermonville 12-08-2026 - 20:24 30°C / 31%
h1-hermonville 12-08-2026 - 20:23 31.3°C / 27.5%
h3-hermonville 12-08-2026 - 20:20 30.8°C / 28%
h4-hermonville 12-08-2026 - 20:18 31.5°C / 27%
h2-hermonville 12-08-2026 - 20:14 30.8°C / 29%
h1-hermonville 12-08-2026 - 20:13 31.7°C / 27%
h3-hermonville 12-08-2026 - 20:10 30.9°C / 28%
h4-hermonville 12-08-2026 - 20:08 31.9°C / 26.5%
h2-hermonville 12-08-2026 - 20:04 31.9°C / 27.5%
h1-hermonville 12-08-2026 - 20:03 32.2°C / 26.5%
h3-hermonville 12-08-2026 - 20:00 31.2°C / 28%
h2-hermonville 12-08-2026 - 19:54 32.6°C / 26.5%
h1-hermonville 12-08-2026 - 19:53 32.7°C / 26%
h3-hermonville 12-08-2026 - 19:50 31.4°C / 28%
h2-hermonville 12-08-2026 - 19:44 33°C / 26.5%
h1-hermonville 12-08-2026 - 19:43 32.8°C / 26.5%
h3-hermonville 12-08-2026 - 19:40 31.6°C / 28%
h4-hermonville 12-08-2026 - 19:38 33°C / 26%
h2-hermonville 12-08-2026 - 19:34 33.6°C / 26.5%
h1-hermonville 12-08-2026 - 19:33 32.7°C / 26.5%
h3-hermonville 12-08-2026 - 19:30 31.5°C / 28.5%
h4-hermonville 12-08-2026 - 19:28 33°C / 26%
h2-hermonville 12-08-2026 - 19:24 34.3°C / 25.5%
h1-hermonville 12-08-2026 - 19:23 32.7°C / 27%
h3-hermonville 12-08-2026 - 19:20 31.7°C / 28%
h4-hermonville 12-08-2026 - 19:18 33.1°C / 26%
h2-hermonville 12-08-2026 - 19:14 34.7°C / 25%
h1-hermonville 12-08-2026 - 19:13 32.6°C / 27%
h3-hermonville 12-08-2026 - 19:10 31.8°C / 28%
h4-hermonville 12-08-2026 - 19:08 33.2°C / 26%
h2-hermonville 12-08-2026 - 19:04 34.6°C / 26%
h1-hermonville 12-08-2026 - 19:03 33°C / 26.5%
h3-hermonville 12-08-2026 - 19:00 32°C / 27.5%
h4-hermonville 12-08-2026 - 18:58 33.3°C / 26%
h2-hermonville 12-08-2026 - 18:54 34.4°C / 25.5%
h1-hermonville 12-08-2026 - 18:53 32.6°C / 27%
h3-hermonville 12-08-2026 - 18:50 31.6°C / 28%
h4-hermonville 12-08-2026 - 18:48 33.2°C / 25.5%
h2-hermonville 12-08-2026 - 18:44 34.7°C / 25%
h1-hermonville 12-08-2026 - 18:43 32.4°C / 27%
h3-hermonville 12-08-2026 - 18:40 31.9°C / 28%
h4-hermonville 12-08-2026 - 18:38 33.2°C / 26%
h2-hermonville 12-08-2026 - 18:34 33.8°C / 26%
h1-hermonville 12-08-2026 - 18:33 32.9°C / 26.5%
h3-hermonville 12-08-2026 - 18:30 32°C / 28%
h4-hermonville 12-08-2026 - 18:28 33.2°C / 26%
h2-hermonville 12-08-2026 - 18:24 34.2°C / 25.5%
h1-hermonville 12-08-2026 - 18:23 33°C / 26.5%
h3-hermonville 12-08-2026 - 18:20 32.1°C / 27.5%
h4-hermonville 12-08-2026 - 18:18 33.2°C / 26%
h1-hermonville 12-08-2026 - 18:13 33°C / 26.5%
h3-hermonville 12-08-2026 - 18:10 32.2°C / 27.5%
h4-hermonville 12-08-2026 - 18:08 33.2°C / 26.5%
h2-hermonville 12-08-2026 - 18:04 33.5°C / 27%
h3-hermonville 12-08-2026 - 18:00 32.5°C / 27%
h4-hermonville 12-08-2026 - 17:58 33.1°C / 26%
h2-hermonville 12-08-2026 - 17:54 34.4°C / 25.5%
h1-hermonville 12-08-2026 - 17:53 32.9°C / 26.5%
h3-hermonville 12-08-2026 - 17:50 32.7°C / 27%
h2-hermonville 12-08-2026 - 17:44 35.1°C / 25%
h1-hermonville 12-08-2026 - 17:43 32.5°C / 27%
h3-hermonville 12-08-2026 - 17:40 32.4°C / 27.5%
h4-hermonville 12-08-2026 - 17:38 33°C / 26%
h1-hermonville 12-08-2026 - 17:33 33°C / 26.5%
h3-hermonville 12-08-2026 - 17:30 32.1°C / 27.5%
h4-hermonville 12-08-2026 - 17:28 32.9°C / 26.5%
h2-hermonville 12-08-2026 - 17:24 34.5°C / 25.5%
h1-hermonville 12-08-2026 - 17:23 32.6°C / 26.5%
h3-hermonville 12-08-2026 - 17:20 32°C / 28%
h4-hermonville 12-08-2026 - 17:18 32.9°C / 26%
h1-hermonville 12-08-2026 - 17:13 32.5°C / 27%
h3-hermonville 12-08-2026 - 17:10 32.2°C / 28%
h4-hermonville 12-08-2026 - 17:08 32.8°C / 26.5%
h2-hermonville 12-08-2026 - 17:04 34.1°C / 26%
h1-hermonville 12-08-2026 - 17:03 32.8°C / 27%
h3-hermonville 12-08-2026 - 17:00 32.4°C / 27.5%
h4-hermonville 12-08-2026 - 16:58 33°C / 26%
h2-hermonville 12-08-2026 - 16:54 33.8°C / 26.5%
h1-hermonville 12-08-2026 - 16:53 32.9°C / 27%
h3-hermonville 12-08-2026 - 16:50 32.2°C / 27.5%
h4-hermonville 12-08-2026 - 16:48 32.7°C / 26.5%
h2-hermonville 12-08-2026 - 16:44 33.8°C / 26%
h1-hermonville 12-08-2026 - 16:43 32.7°C / 27%
h3-hermonville 12-08-2026 - 16:40 31.9°C / 27.5%
h4-hermonville 12-08-2026 - 16:38 32.7°C / 26%
h2-hermonville 12-08-2026 - 16:34 33.1°C / 27%
h1-hermonville 12-08-2026 - 16:33 32.8°C / 26.5%
h3-hermonville 12-08-2026 - 16:30 32.3°C / 27%
h4-hermonville 12-08-2026 - 16:28 32.5°C / 27%
h1-hermonville 12-08-2026 - 16:23 32.5°C / 26.5%
h3-hermonville 12-08-2026 - 16:20 32.1°C / 28%
h4-hermonville 12-08-2026 - 16:18 32.5°C / 26.5%
h1-hermonville 12-08-2026 - 16:13 32°C / 28%
h3-hermonville 12-08-2026 - 16:10 32.1°C / 27.5%
h4-hermonville 12-08-2026 - 16:08 32.5°C / 26.5%
h2-hermonville 12-08-2026 - 16:04 31.4°C / 29%
h1-hermonville 12-08-2026 - 16:03 31.7°C / 28%
h3-hermonville 12-08-2026 - 16:00 31.7°C / 28%
h4-hermonville 12-08-2026 - 15:58 32.2°C / 27%
h2-hermonville 12-08-2026 - 15:54 30.7°C / 29.5%
h1-hermonville 12-08-2026 - 15:53 32.1°C / 27.5%
h3-hermonville 12-08-2026 - 15:50 31.4°C / 29%
h4-hermonville 12-08-2026 - 15:48 32°C / 27.5%
h2-hermonville 12-08-2026 - 15:44 30.7°C / 30.5%
h1-hermonville 12-08-2026 - 15:43 31.4°C / 28.5%
h3-hermonville 12-08-2026 - 15:40 31.3°C / 28.5%
h4-hermonville 12-08-2026 - 15:38 32°C / 27%
h1-hermonville 12-08-2026 - 15:33 31.7°C / 28%
h3-hermonville 12-08-2026 - 15:30 31.6°C / 28.5%
h2-hermonville 12-08-2026 - 15:24 30.5°C / 30%
h3-hermonville 12-08-2026 - 15:20 31.5°C / 28.5%
h4-hermonville 12-08-2026 - 15:18 31.5°C / 28%
h2-hermonville 12-08-2026 - 15:14 30°C / 31%
h1-hermonville 12-08-2026 - 15:13 30.7°C / 30%
h3-hermonville 12-08-2026 - 15:10 31.4°C / 28.5%
h4-hermonville 12-08-2026 - 15:08 31.5°C / 27.5%
h2-hermonville 12-08-2026 - 15:04 29.9°C / 31%
h1-hermonville 12-08-2026 - 15:03 30.3°C / 29.5%
h3-hermonville 12-08-2026 - 15:00 31.6°C / 28.5%
h4-hermonville 12-08-2026 - 14:58 31.2°C / 28.5%
h2-hermonville 12-08-2026 - 14:54 29.4°C / 32%
h1-hermonville 12-08-2026 - 14:53 30.1°C / 30.5%
h3-hermonville 12-08-2026 - 14:50 31.6°C / 28%
h4-hermonville 12-08-2026 - 14:48 31.1°C / 28%
h2-hermonville 12-08-2026 - 14:44 29.7°C / 31.5%
h1-hermonville 12-08-2026 - 14:43 29.9°C / 30.5%
h3-hermonville 12-08-2026 - 14:40 30.8°C / 29%
h4-hermonville 12-08-2026 - 14:38 31.1°C / 28%
h2-hermonville 12-08-2026 - 14:34 29.3°C / 31.5%
h1-hermonville 12-08-2026 - 14:33 30.1°C / 30%
h3-hermonville 12-08-2026 - 14:30 30.2°C / 29.5%
h4-hermonville 12-08-2026 - 14:28 30.8°C / 28%
h2-hermonville 12-08-2026 - 14:24 29.2°C / 31.5%
h1-hermonville 12-08-2026 - 14:23 29.8°C / 30%
h3-hermonville 12-08-2026 - 14:20 29.7°C / 30%
h4-hermonville 12-08-2026 - 14:18 30.7°C / 28.5%
h2-hermonville 12-08-2026 - 14:14 29.3°C / 31.5%
h1-hermonville 12-08-2026 - 14:13 29.6°C / 30.5%
h3-hermonville 12-08-2026 - 14:10 29.5°C / 30.5%
h4-hermonville 12-08-2026 - 14:08 30.4°C / 28.5%
h2-hermonville 12-08-2026 - 14:04 28.8°C / 31.5%
h1-hermonville 12-08-2026 - 14:03 29.4°C / 30%
h3-hermonville 12-08-2026 - 14:00 29.4°C / 30.5%
h4-hermonville 12-08-2026 - 13:58 30.3°C / 28.5%
h2-hermonville 12-08-2026 - 13:54 28.7°C / 32%
h1-hermonville 12-08-2026 - 13:53 29.6°C / 30%
h3-hermonville 12-08-2026 - 13:50 29.2°C / 31%
h4-hermonville 12-08-2026 - 13:48 30.1°C / 29%
h2-hermonville 12-08-2026 - 13:44 28.5°C / 32.5%
h1-hermonville 12-08-2026 - 13:43 29°C / 31%
h3-hermonville 12-08-2026 - 13:40 28.8°C / 31.5%
h4-hermonville 12-08-2026 - 13:38 29.9°C / 29%
h2-hermonville 12-08-2026 - 13:34 28.2°C / 32.5%
h1-hermonville 12-08-2026 - 13:33 29°C / 31%
h3-hermonville 12-08-2026 - 13:30 28.6°C / 31.5%
h4-hermonville 12-08-2026 - 13:28 29.8°C / 29%
h2-hermonville 12-08-2026 - 13:24 27.9°C / 32.5%
h1-hermonville 12-08-2026 - 13:23 28.9°C / 31%
h3-hermonville 12-08-2026 - 13:20 28.5°C / 31%
h4-hermonville 12-08-2026 - 13:18 29.8°C / 29%
h2-hermonville 12-08-2026 - 13:14 27.8°C / 32.5%
h1-hermonville 12-08-2026 - 13:13 28.4°C / 31.5%
h3-hermonville 12-08-2026 - 13:10 28.2°C / 31.5%
h4-hermonville 12-08-2026 - 13:08 29.6°C / 28.5%
h2-hermonville 12-08-2026 - 13:04 27.4°C / 33.5%
h1-hermonville 12-08-2026 - 13:03 27.8°C / 32%
h3-hermonville 12-08-2026 - 13:00 28°C / 32%
h2-hermonville 12-08-2026 - 12:54 26.9°C / 34%
h1-hermonville 12-08-2026 - 12:53 27.7°C / 32%
h3-hermonville 12-08-2026 - 12:50 27.9°C / 32%
h2-hermonville 12-08-2026 - 12:44 26.9°C / 34.5%
h1-hermonville 12-08-2026 - 12:43 27.6°C / 32%
h3-hermonville 12-08-2026 - 12:40 27.3°C / 32.5%
h4-hermonville 12-08-2026 - 12:38 29.1°C / 29%
h2-hermonville 12-08-2026 - 12:34 26.5°C / 34%
h1-hermonville 12-08-2026 - 12:33 27.2°C / 32.5%
h3-hermonville 12-08-2026 - 12:30 27.2°C / 32.5%
h4-hermonville 12-08-2026 - 12:28 29.2°C / 29%
h2-hermonville 12-08-2026 - 12:24 26.2°C / 34.5%
h1-hermonville 12-08-2026 - 12:23 26.9°C / 32.5%
h3-hermonville 12-08-2026 - 12:20 26.9°C / 33%
h4-hermonville 12-08-2026 - 12:18 29.4°C / 28%
h2-hermonville 12-08-2026 - 12:14 26.1°C / 34.5%
h1-hermonville 12-08-2026 - 12:13 26.7°C / 33%
h3-hermonville 12-08-2026 - 12:10 26.7°C / 32.5%
h4-hermonville 12-08-2026 - 12:08 30.2°C / 27.5%
h1-hermonville 12-08-2026 - 12:03 26.3°C / 33%
h3-hermonville 12-08-2026 - 12:00 26.4°C / 33.5%
h4-hermonville 12-08-2026 - 11:58 31.4°C / 25.5%
h2-hermonville 12-08-2026 - 11:54 26°C / 34.5%
h1-hermonville 12-08-2026 - 11:53 26°C / 33%
h3-hermonville 12-08-2026 - 11:50 26.1°C / 33.5%
h4-hermonville 12-08-2026 - 11:48 31.8°C / 25%
h2-hermonville 12-08-2026 - 11:44 25.6°C / 34.5%
h1-hermonville 12-08-2026 - 11:43 25.6°C / 34%
h3-hermonville 12-08-2026 - 11:40 25.8°C / 34%
h4-hermonville 12-08-2026 - 11:38 31.8°C / 24.5%
h2-hermonville 12-08-2026 - 11:34 25.1°C / 35%
h1-hermonville 12-08-2026 - 11:33 25.4°C / 34%
h3-hermonville 12-08-2026 - 11:30 25.6°C / 34%
h4-hermonville 12-08-2026 - 11:28 33.7°C / 23%
h2-hermonville 12-08-2026 - 11:24 24.7°C / 36.5%
h1-hermonville 12-08-2026 - 11:23 24.7°C / 35.5%
h3-hermonville 12-08-2026 - 11:20 25°C / 35%
h4-hermonville 12-08-2026 - 11:18 32.1°C / 25%
h2-hermonville 12-08-2026 - 11:14 24.4°C / 37%
h1-hermonville 12-08-2026 - 11:13 24.4°C / 35.5%
h3-hermonville 12-08-2026 - 11:10 24.8°C / 35.5%
h4-hermonville 12-08-2026 - 11:08 32°C / 24.5%
h2-hermonville 12-08-2026 - 11:04 24°C / 37.5%
h1-hermonville 12-08-2026 - 11:03 24°C / 36.5%
h3-hermonville 12-08-2026 - 11:00 24.5°C / 36.5%
h4-hermonville 12-08-2026 - 10:58 31.9°C / 26%
h2-hermonville 12-08-2026 - 10:54 23.9°C / 37.5%
h1-hermonville 12-08-2026 - 10:53 23.5°C / 37.5%
h3-hermonville 12-08-2026 - 10:50 24.1°C / 36.5%
h4-hermonville 12-08-2026 - 10:48 30.4°C / 27%
h2-hermonville 12-08-2026 - 10:44 23.6°C / 37.5%
h1-hermonville 12-08-2026 - 10:43 23.4°C / 37.5%
h3-hermonville 12-08-2026 - 10:40 23.9°C / 36.5%
h4-hermonville 12-08-2026 - 10:38 30°C / 27%
h2-hermonville 12-08-2026 - 10:34 23.4°C / 37.5%
h1-hermonville 12-08-2026 - 10:33 23.1°C / 37.5%
h3-hermonville 12-08-2026 - 10:30 23.4°C / 37%
h4-hermonville 12-08-2026 - 10:28 29.3°C / 27.5%
h2-hermonville 12-08-2026 - 10:24 23.1°C / 37.5%
h1-hermonville 12-08-2026 - 10:23 22.8°C / 38%
h3-hermonville 12-08-2026 - 10:20 23.2°C / 37.5%
h4-hermonville 12-08-2026 - 10:18 28.4°C / 28.5%
h2-hermonville 12-08-2026 - 10:14 22.8°C / 38%
h1-hermonville 12-08-2026 - 10:13 22.4°C / 38.5%
h3-hermonville 12-08-2026 - 10:10 22.9°C / 38%
h4-hermonville 12-08-2026 - 10:08 28.1°C / 28.5%
h2-hermonville 12-08-2026 - 10:04 22.8°C / 38%
h1-hermonville 12-08-2026 - 10:03 22.1°C / 39%
h3-hermonville 12-08-2026 - 10:00 22.8°C / 37%
h2-hermonville 12-08-2026 - 09:54 22.4°C / 39%
h1-hermonville 12-08-2026 - 09:53 21.6°C / 40.5%
h3-hermonville 12-08-2026 - 09:50 22.7°C / 38.5%
h4-hermonville 12-08-2026 - 09:48 28.8°C / 27.5%
h2-hermonville 12-08-2026 - 09:44 22.2°C / 39.5%
h1-hermonville 12-08-2026 - 09:43 21.2°C / 41.5%
h3-hermonville 12-08-2026 - 09:40 22.4°C / 39.5%
h4-hermonville 12-08-2026 - 09:38 28.9°C / 28%
h2-hermonville 12-08-2026 - 09:34 22°C / 39%
h1-hermonville 12-08-2026 - 09:33 20.5°C / 41.5%
h3-hermonville 12-08-2026 - 09:30 22.1°C / 39.5%
h4-hermonville 12-08-2026 - 09:28 27.9°C / 28.5%
h2-hermonville 12-08-2026 - 09:24 21.8°C / 40%
h1-hermonville 12-08-2026 - 09:23 20.5°C / 42%
h3-hermonville 12-08-2026 - 09:20 22°C / 39.5%
h4-hermonville 12-08-2026 - 09:18 27.9°C / 28%
h2-hermonville 12-08-2026 - 09:14 21.6°C / 39.5%
h1-hermonville 12-08-2026 - 09:13 20.2°C / 42%
h3-hermonville 12-08-2026 - 09:10 21.8°C / 40%
h4-hermonville 12-08-2026 - 09:08 28.1°C / 28%
h2-hermonville 12-08-2026 - 09:04 21.3°C / 40%
h1-hermonville 12-08-2026 - 09:03 20.1°C / 42.5%
h3-hermonville 12-08-2026 - 09:00 21.5°C / 41.5%
h4-hermonville 12-08-2026 - 08:58 28.5°C / 28%
h2-hermonville 12-08-2026 - 08:54 20.8°C / 41.5%
h3-hermonville 12-08-2026 - 08:50 21.3°C / 41.5%
h4-hermonville 12-08-2026 - 08:48 27.1°C / 29.5%
h2-hermonville 12-08-2026 - 08:44 20.4°C / 45%
h3-hermonville 12-08-2026 - 08:40 20.9°C / 43%
h4-hermonville 12-08-2026 - 08:38 26.3°C / 31.5%
h2-hermonville 12-08-2026 - 08:34 20.2°C / 44.5%
h1-hermonville 12-08-2026 - 08:33 19.5°C / 44.5%
h3-hermonville 12-08-2026 - 08:30 20.3°C / 44.5%
h4-hermonville 12-08-2026 - 08:28 25.3°C / 34%
h2-hermonville 12-08-2026 - 08:24 19.8°C / 44.5%
h1-hermonville 12-08-2026 - 08:23 19°C / 46.5%
h3-hermonville 12-08-2026 - 08:20 20°C / 43.5%
h4-hermonville 12-08-2026 - 08:18 23.2°C / 37.5%
h2-hermonville 12-08-2026 - 08:14 19.8°C / 45%
h1-hermonville 12-08-2026 - 08:13 18.6°C / 47%
h3-hermonville 12-08-2026 - 08:10 19.5°C / 46.5%
h4-hermonville 12-08-2026 - 08:08 21.4°C / 42%
h2-hermonville 12-08-2026 - 08:04 19.2°C / 48%
h1-hermonville 12-08-2026 - 08:03 18.5°C / 48.5%
h3-hermonville 12-08-2026 - 08:00 19.1°C / 48.5%
h4-hermonville 12-08-2026 - 07:58 20.8°C / 44%
h2-hermonville 12-08-2026 - 07:54 18.7°C / 49.5%
h1-hermonville 12-08-2026 - 07:53 18.3°C / 49.5%
h3-hermonville 12-08-2026 - 07:50 18.7°C / 49%
h4-hermonville 12-08-2026 - 07:48 20.4°C / 43.5%
h2-hermonville 12-08-2026 - 07:44 18.4°C / 50.5%
h1-hermonville 12-08-2026 - 07:43 18.1°C / 50%
h4-hermonville 12-08-2026 - 07:38 20°C / 45.5%
h1-hermonville 12-08-2026 - 07:33 18°C / 50.5%
h3-hermonville 12-08-2026 - 07:30 18.4°C / 49%
h4-hermonville 12-08-2026 - 07:28 19.8°C / 45.5%
h2-hermonville 12-08-2026 - 07:24 17.7°C / 50.5%
h1-hermonville 12-08-2026 - 07:23 17.7°C / 50%
h3-hermonville 12-08-2026 - 07:20 18.2°C / 49%
h4-hermonville 12-08-2026 - 07:18 19.5°C / 45.5%
h2-hermonville 12-08-2026 - 07:14 17.6°C / 51%
h1-hermonville 12-08-2026 - 07:13 17.7°C / 49.5%
h3-hermonville 12-08-2026 - 07:10 18.2°C / 48%
h4-hermonville 12-08-2026 - 07:08 19.6°C / 45.5%
h2-hermonville 12-08-2026 - 07:04 17.6°C / 52%
h1-hermonville 12-08-2026 - 07:03 17.7°C / 47.5%
h3-hermonville 12-08-2026 - 07:00 18.7°C / 47.5%
h4-hermonville 12-08-2026 - 06:58 19.4°C / 45%
h2-hermonville 12-08-2026 - 06:54 17.7°C / 51%
h1-hermonville 12-08-2026 - 06:53 17.7°C / 49.5%
h3-hermonville 12-08-2026 - 06:50 18.5°C / 48%
h4-hermonville 12-08-2026 - 06:48 19.6°C / 45.5%
h2-hermonville 12-08-2026 - 06:44 17.8°C / 51%
h1-hermonville 12-08-2026 - 06:43 17.8°C / 50%
h3-hermonville 12-08-2026 - 06:40 18.3°C / 47.5%
h4-hermonville 12-08-2026 - 06:38 19.4°C / 46%
h2-hermonville 12-08-2026 - 06:34 17.9°C / 50%
h1-hermonville 12-08-2026 - 06:33 17.8°C / 50.5%
h3-hermonville 12-08-2026 - 06:30 18.3°C / 48.5%
h4-hermonville 12-08-2026 - 06:28 19.7°C / 45.5%
h2-hermonville 12-08-2026 - 06:24 17.9°C / 51%
h1-hermonville 12-08-2026 - 06:23 17.5°C / 51%
h3-hermonville 12-08-2026 - 06:20 19.3°C / 46%
h4-hermonville 12-08-2026 - 06:18 19.8°C / 45%
h2-hermonville 12-08-2026 - 06:14 18.1°C / 50.5%
h1-hermonville 12-08-2026 - 06:13 17.7°C / 48.5%
h3-hermonville 12-08-2026 - 06:10 19.3°C / 46%
h4-hermonville 12-08-2026 - 06:08 19.5°C / 44.5%
h2-hermonville 12-08-2026 - 06:04 18.2°C / 49.5%
h1-hermonville 12-08-2026 - 06:03 17.6°C / 47.5%
h3-hermonville 12-08-2026 - 06:00 19.6°C / 45.5%
h4-hermonville 12-08-2026 - 05:58 20°C / 44%
h2-hermonville 12-08-2026 - 05:54 18.2°C / 50%
h1-hermonville 12-08-2026 - 05:53 17.5°C / 46.5%
h3-hermonville 12-08-2026 - 05:50 19.2°C / 47%
h4-hermonville 12-08-2026 - 05:48 20°C / 44.5%
h2-hermonville 12-08-2026 - 05:44 18.3°C / 50.5%
h1-hermonville 12-08-2026 - 05:43 17.7°C / 47.5%
h3-hermonville 12-08-2026 - 05:40 19.6°C / 44.5%
h4-hermonville 12-08-2026 - 05:38 20.2°C / 44.5%
h2-hermonville 12-08-2026 - 05:34 18.5°C / 48.5%
h1-hermonville 12-08-2026 - 05:33 17.7°C / 48%
h3-hermonville 12-08-2026 - 05:30 19.5°C / 45.5%
h4-hermonville 12-08-2026 - 05:28 20.1°C / 44%
h2-hermonville 12-08-2026 - 05:24 18.5°C / 48.5%
h1-hermonville 12-08-2026 - 05:23 18.1°C / 46%
h3-hermonville 12-08-2026 - 05:20 19.9°C / 45%
h4-hermonville 12-08-2026 - 05:18 20.6°C / 42.5%
h2-hermonville 12-08-2026 - 05:14 18.6°C / 49%
h1-hermonville 12-08-2026 - 05:13 18.1°C / 46%
h3-hermonville 12-08-2026 - 05:10 20°C / 45%
h4-hermonville 12-08-2026 - 05:08 20.7°C / 43.5%
h1-hermonville 12-08-2026 - 05:03 18.3°C / 47%
h3-hermonville 12-08-2026 - 05:00 19.4°C / 45.5%
h4-hermonville 12-08-2026 - 04:58 20.9°C / 43%
h2-hermonville 12-08-2026 - 04:54 18.8°C / 48%
h1-hermonville 12-08-2026 - 04:53 18.1°C / 47%
h3-hermonville 12-08-2026 - 04:50 20.2°C / 45%
h4-hermonville 12-08-2026 - 04:48 20.7°C / 43.5%
h2-hermonville 12-08-2026 - 04:44 19°C / 47.5%
h1-hermonville 12-08-2026 - 04:43 18.2°C / 49%
h3-hermonville 12-08-2026 - 04:40 20.2°C / 45%
h4-hermonville 12-08-2026 - 04:38 20.6°C / 44.5%
h1-hermonville 12-08-2026 - 04:33 18.6°C / 47.5%
h3-hermonville 12-08-2026 - 04:30 19.5°C / 46.5%
h4-hermonville 12-08-2026 - 04:28 20.5°C / 44.5%
h2-hermonville 12-08-2026 - 04:24 19.1°C / 48%
h1-hermonville 12-08-2026 - 04:23 18.4°C / 49.5%
h3-hermonville 12-08-2026 - 04:20 19.9°C / 46%
h4-hermonville 12-08-2026 - 04:18 20.7°C / 44%
h2-hermonville 12-08-2026 - 04:14 19.4°C / 48.5%
h1-hermonville 12-08-2026 - 04:13 18.6°C / 48%
h3-hermonville 12-08-2026 - 04:10 20.1°C / 45.5%
h4-hermonville 12-08-2026 - 04:08 20.8°C / 43.5%
h2-hermonville 12-08-2026 - 04:04 19.5°C / 48%
h1-hermonville 12-08-2026 - 04:03 18.7°C / 46.5%
h3-hermonville 12-08-2026 - 04:00 20.1°C / 46%
h4-hermonville 12-08-2026 - 03:58 21.1°C / 43.5%
h2-hermonville 12-08-2026 - 03:54 19.5°C / 48%
h1-hermonville 12-08-2026 - 03:53 18.9°C / 45.5%
h3-hermonville 12-08-2026 - 03:50 20.8°C / 44.5%
h4-hermonville 12-08-2026 - 03:48 21.4°C / 42.5%
h2-hermonville 12-08-2026 - 03:44 19.7°C / 48%
h1-hermonville 12-08-2026 - 03:43 18.9°C / 45.5%
h3-hermonville 12-08-2026 - 03:40 20.7°C / 44.5%
h4-hermonville 12-08-2026 - 03:38 21.5°C / 42.5%
h2-hermonville 12-08-2026 - 03:34 19.8°C / 47.5%
h1-hermonville 12-08-2026 - 03:33 19.2°C / 47%
h3-hermonville 12-08-2026 - 03:30 20.9°C / 43.5%
h4-hermonville 12-08-2026 - 03:28 21.4°C / 43.5%
h2-hermonville 12-08-2026 - 03:24 19.9°C / 47.5%
h1-hermonville 12-08-2026 - 03:23 19.2°C / 47.5%
h3-hermonville 12-08-2026 - 03:20 21.3°C / 43.5%
h4-hermonville 12-08-2026 - 03:18 21.6°C / 43%
h2-hermonville 12-08-2026 - 03:14 20°C / 46%
h1-hermonville 12-08-2026 - 03:13 19.5°C / 46.5%
h3-hermonville 12-08-2026 - 03:10 21.1°C / 43.5%
h4-hermonville 12-08-2026 - 03:08 21.6°C / 42.5%
h1-hermonville 12-08-2026 - 03:03 19.5°C / 47%
h3-hermonville 12-08-2026 - 03:00 21.3°C / 44%
h4-hermonville 12-08-2026 - 02:58 21.7°C / 43%
h2-hermonville 12-08-2026 - 02:54 20.4°C / 46.5%
h1-hermonville 12-08-2026 - 02:53 19.7°C / 46.5%
h3-hermonville 12-08-2026 - 02:50 21.2°C / 45%
h4-hermonville 12-08-2026 - 02:48 21.8°C / 42%
h2-hermonville 12-08-2026 - 02:44 20.6°C / 46.5%
h1-hermonville 12-08-2026 - 02:43 19.8°C / 46.5%
h3-hermonville 12-08-2026 - 02:40 21.2°C / 44.5%
h4-hermonville 12-08-2026 - 02:38 22°C / 41.5%
h2-hermonville 12-08-2026 - 02:34 20.6°C / 47%
h1-hermonville 12-08-2026 - 02:33 19.8°C / 45.5%
h3-hermonville 12-08-2026 - 02:30 21.7°C / 44%
h4-hermonville 12-08-2026 - 02:28 22.1°C / 42.5%
h2-hermonville 12-08-2026 - 02:24 20.8°C / 47%
h1-hermonville 12-08-2026 - 02:23 19.9°C / 47%
h3-hermonville 12-08-2026 - 02:20 21.7°C / 44%
h4-hermonville 12-08-2026 - 02:18 22.1°C / 43%
h2-hermonville 12-08-2026 - 02:14 21.1°C / 46.5%
h1-hermonville 12-08-2026 - 02:13 20.2°C / 44%
h3-hermonville 12-08-2026 - 02:10 22.2°C / 43%
h4-hermonville 12-08-2026 - 02:08 22.1°C / 42.5%
h2-hermonville 12-08-2026 - 02:04 21.4°C / 45.5%
h1-hermonville 12-08-2026 - 02:03 20.5°C / 44%
h3-hermonville 12-08-2026 - 02:00 22.1°C / 43.5%
h4-hermonville 12-08-2026 - 01:58 22°C / 42.5%
h2-hermonville 12-08-2026 - 01:54 21.5°C / 44%
h1-hermonville 12-08-2026 - 01:53 20.6°C / 46.5%
h3-hermonville 12-08-2026 - 01:50 22°C / 44%
h4-hermonville 12-08-2026 - 01:48 22°C / 43%
h2-hermonville 12-08-2026 - 01:44 22°C / 43%
h1-hermonville 12-08-2026 - 01:43 20.4°C / 44.5%
h3-hermonville 12-08-2026 - 01:40 21.9°C / 43.5%
h4-hermonville 12-08-2026 - 01:38 22.3°C / 43%
h2-hermonville 12-08-2026 - 01:34 22.2°C / 43.5%
h1-hermonville 12-08-2026 - 01:33 20.6°C / 44%
h3-hermonville 12-08-2026 - 01:30 22.4°C / 42%
h4-hermonville 12-08-2026 - 01:28 22.5°C / 42.5%
h2-hermonville 12-08-2026 - 01:24 22.6°C / 44%
h1-hermonville 12-08-2026 - 01:23 20.8°C / 44.5%
h3-hermonville 12-08-2026 - 01:20 22.6°C / 43.5%
h4-hermonville 12-08-2026 - 01:18 22.6°C / 42%
h2-hermonville 12-08-2026 - 01:14 23.3°C / 43%
h1-hermonville 12-08-2026 - 01:13 21°C / 44%
h3-hermonville 12-08-2026 - 01:10 23°C / 42.5%
h4-hermonville 12-08-2026 - 01:08 22.7°C / 39%
h2-hermonville 12-08-2026 - 01:04 24.1°C / 41%
h1-hermonville 12-08-2026 - 01:03 21.3°C / 43.5%
h3-hermonville 12-08-2026 - 01:00 23.5°C / 40%
h4-hermonville 12-08-2026 - 00:58 22.9°C / 39%
h2-hermonville 12-08-2026 - 00:54 24.9°C / 38%
h1-hermonville 12-08-2026 - 00:53 21.7°C / 42%
h3-hermonville 12-08-2026 - 00:50 23.6°C / 39.5%
h4-hermonville 12-08-2026 - 00:48 22.9°C / 38.5%
h2-hermonville 12-08-2026 - 00:44 25.2°C / 36.5%
h1-hermonville 12-08-2026 - 00:43 22°C / 41%
h3-hermonville 12-08-2026 - 00:40 23.8°C / 38.5%
h4-hermonville 12-08-2026 - 00:38 23°C / 38.5%
h2-hermonville 12-08-2026 - 00:34 25.1°C / 36%
h1-hermonville 12-08-2026 - 00:33 22.2°C / 41%
h3-hermonville 12-08-2026 - 00:30 23.9°C / 39%
h4-hermonville 12-08-2026 - 00:28 23.1°C / 38.5%
h2-hermonville 12-08-2026 - 00:24 25.2°C / 37%
h1-hermonville 12-08-2026 - 00:23 22.4°C / 40.5%
h3-hermonville 12-08-2026 - 00:20 24°C / 39.5%
h4-hermonville 12-08-2026 - 00:18 23.3°C / 38.5%
h2-hermonville 12-08-2026 - 00:14 25.2°C / 38%
h1-hermonville 12-08-2026 - 00:13 22.5°C / 41.5%
h3-hermonville 12-08-2026 - 00:10 24°C / 40%
h4-hermonville 12-08-2026 - 00:08 23.7°C / 38.5%
h2-hermonville 12-08-2026 - 00:04 24.6°C / 42%
h1-hermonville 12-08-2026 - 00:03 22.6°C / 41.5%
h3-hermonville 12-08-2026 - 00:00 23.7°C / 42.5%